Time;durP1;ratioP1;P1;durP2;ratioP2;P2;SDS_P1;SDS_P2;PMS_P1;PMS_P2;Temp;Humidity;BMP_temperature;BMP_pressure;BME280_temperature;BME280_humidity;BME280_pressure;Samples;Min_cycle;Max_cycle;Signal;HPM_P1;HPM_P2
2022/04/09 00:01:48;;;;;;;6.30;6.10;;;3.60;50.60;;;;;;4992626;28;20286;-71
2022/04/09 00:04:14;;;;;;;6.40;6.10;;;3.70;51.30;;;;;;4993748;28;20308;-70
2022/04/09 00:06:39;;;;;;;6.93;6.60;;;3.60;49.90;;;;;;4992233;28;20275;-69
2022/04/09 00:09:05;;;;;;;5.90;5.63;;;3.50;49.10;;;;;;4992396;28;20673;-70
2022/04/09 00:11:30;;;;;;;5.60;5.40;;;3.00;83.30;;;;;;4993726;28;20180;-69
2022/04/09 00:13:56;;;;;;;5.70;5.40;;;3.50;51.00;;;;;;4993621;28;20546;-69
2022/04/09 00:16:21;;;;;;;5.93;5.63;;;3.60;50.30;;;;;;4993354;28;20209;-73
2022/04/09 00:18:47;;;;;;;5.53;5.33;;;3.60;50.90;;;;;;4993247;28;20184;-69
2022/04/09 00:21:12;;;;;;;5.70;5.40;;;3.60;50.80;;;;;;4992155;28;20572;-69
2022/04/09 00:23:38;;;;;;;5.87;5.60;;;3.60;51.00;;;;;;4993568;28;20196;-70
2022/04/09 00:26:03;;;;;;;5.60;5.30;;;3.40;50.40;;;;;;4993216;28;20208;-70
2022/04/09 00:28:29;;;;;;;5.53;5.23;;;3.40;46.80;;;;;;4993213;28;20177;-69
2022/04/09 00:30:54;;;;;;;5.33;5.13;;;3.40;48.00;;;;;;4993917;28;20796;-69
2022/04/09 00:33:20;;;;;;;5.27;4.97;;;3.20;46.60;;;;;;4992113;28;20192;-69
2022/04/09 00:35:45;;;;;;;5.00;4.80;;;3.20;48.50;;;;;;4993520;28;20201;-71
2022/04/09 00:38:11;;;;;;;4.83;4.63;;;3.10;48.60;;;;;;4993103;28;20208;-69
2022/04/09 00:40:36;;;;;;;4.90;4.70;;;3.20;49.20;;;;;;4993342;28;20694;-70
2022/04/09 00:43:02;;;;;;;4.60;4.40;;;3.20;50.20;;;;;;4993217;28;20665;-69
2022/04/09 00:45:28;;;;;;;3.97;3.77;;;3.30;50.90;;;;;;4993129;28;20215;-70
2022/04/09 00:47:54;;;;;;;4.00;3.80;;;3.30;49.90;;;;;;4992835;28;20177;-69
2022/04/09 00:50:20;;;;;;;3.92;3.72;;;3.30;49.40;;;;;;4993389;28;20654;-69
2022/04/09 00:52:48;;;;;;;3.60;3.40;;;3.30;49.30;;;;;;4993274;28;20231;-68
2022/04/09 00:55:16;;;;;;;4.00;3.80;;;3.30;49.10;;;;;;4993577;28;20594;-68
2022/04/09 00:57:45;;;;;;;3.80;3.60;;;3.30;48.90;;;;;;4991728;28;20208;-70
2022/04/09 01:00:11;;;;;;;3.97;3.78;;;3.30;48.60;;;;;;4993013;28;20230;-69
2022/04/09 01:02:41;;;;;;;3.60;3.40;;;3.30;49.10;;;;;;4993006;28;20172;-69
2022/04/09 01:05:07;;;;;;;3.30;3.10;;;3.40;49.40;;;;;;4992960;28;20172;-70
2022/04/09 01:07:33;;;;;;;3.60;3.40;;;3.40;49.20;;;;;;4992864;28;20587;-69
2022/04/09 01:10:00;;;;;;;3.60;3.40;;;3.40;49.80;;;;;;4992893;28;20168;-69
2022/04/09 01:12:26;;;;;;;3.47;3.28;;;3.50;49.30;;;;;;4992941;28;20269;-69
2022/04/09 01:14:52;;;;;;;3.72;3.42;;;3.50;48.80;;;;;;4993074;28;20172;-71
2022/04/09 01:17:18;;;;;;;4.13;3.87;;;3.40;49.10;;;;;;4991643;28;20176;-70
2022/04/09 01:19:43;;;;;;;3.53;3.33;;;3.40;49.10;;;;;;4995295;28;20173;-69
2022/04/09 01:22:09;;;;;;;3.40;3.20;;;3.50;49.00;;;;;;4995509;28;20205;-70
2022/04/09 01:24:34;;;;;;;2.93;2.83;;;3.50;50.30;;;;;;4993084;28;20176;-70
2022/04/09 01:27:00;;;;;;;4.00;3.70;;;3.50;49.40;;;;;;4992346;28;20208;-69
2022/04/09 01:29:26;;;;;;;4.90;4.10;;;3.50;48.80;;;;;;4995193;28;20188;-70
2022/04/09 01:31:52;;;;;;;3.00;2.80;;;3.40;49.50;;;;;;4997807;28;20435;-69
2022/04/09 01:34:17;;;;;;;4.30;3.77;;;3.40;48.70;;;;;;4999187;28;20218;-69
2022/04/09 01:36:43;;;;;;;3.27;3.07;;;3.40;46.80;;;;;;4997541;28;20208;-70
2022/04/09 01:39:08;;;;;;;3.20;3.00;;;3.40;48.70;;;;;;4998984;28;20657;-68
2022/04/09 01:41:34;;;;;;;4.07;3.77;;;3.40;49.90;;;;;;4999004;28;20197;-70
2022/04/09 01:43:59;;;;;;;3.00;2.80;;;3.50;50.10;;;;;;4999053;28;20255;-69
2022/04/09 01:46:25;;;;;;;2.90;2.70;;;3.50;48.60;;;;;;4998745;28;20231;-70
2022/04/09 01:48:50;;;;;;;3.37;3.17;;;3.50;47.90;;;;;;4999076;28;20216;-70
2022/04/09 01:51:16;;;;;;;3.07;2.87;;;3.50;47.00;;;;;;4998880;28;20179;-69
2022/04/09 01:53:41;;;;;;;3.07;2.87;;;3.50;47.00;;;;;;4997622;28;20180;-70
2022/04/09 01:56:07;;;;;;;2.30;2.20;;;3.50;47.90;;;;;;4998813;28;20254;-72
2022/04/09 01:58:33;;;;;;;2.63;2.43;;;3.50;47.90;;;;;;4998632;28;20636;-70
2022/04/09 02:00:59;;;;;;;3.40;3.20;;;3.50;47.80;;;;;;4998806;28;20237;-70
2022/04/09 02:03:26;;;;;;;3.10;2.90;;;3.50;47.90;;;;;;4998869;28;20284;-70
2022/04/09 02:05:51;;;;;;;3.22;2.92;;;3.60;47.60;;;;;;4999170;28;20463;-70
2022/04/09 02:08:17;;;;;;;2.93;2.73;;;3.70;47.10;;;;;;4998532;28;20491;-70
2022/04/09 02:10:43;;;;;;;3.37;3.17;;;3.60;46.80;;;;;;4998821;28;20439;-70
2022/04/09 02:13:18;;;;;;;3.57;3.27;;;3.60;47.30;;;;;;4998668;28;20184;-71
2022/04/09 02:15:43;;;;;;;3.65;3.45;;;3.50;46.50;;;;;;4998687;28;20269;-69
2022/04/09 02:18:09;;;;;;;4.03;3.73;;;3.60;47.00;;;;;;4997119;28;20184;-69
2022/04/09 02:20:35;;;;;;;4.23;3.37;;;3.70;47.10;;;;;;4998648;28;20204;-69
2022/04/09 02:23:00;;;;;;;4.03;3.73;;;3.70;46.00;;;;;;4998624;28;20622;-70
2022/04/09 02:25:26;;;;;;;3.20;2.90;;;3.70;45.20;;;;;;4998419;28;20208;-71
2022/04/09 02:27:51;;;;;;;3.80;3.50;;;3.80;46.80;;;;;;4997145;28;20172;-70
2022/04/09 02:30:17;;;;;;;3.67;3.47;;;3.70;47.10;;;;;;4998671;28;20183;-69
2022/04/09 02:32:45;;;;;;;3.57;3.30;;;3.80;45.50;;;;;;4998612;28;20181;-70
2022/04/09 02:35:11;;;;;;;4.13;3.83;;;3.70;46.80;;;;;;4998427;28;20755;-70
2022/04/09 02:37:37;;;;;;;2.97;2.78;;;3.70;46.20;;;;;;4997385;28;20262;-70
2022/04/09 02:40:03;;;;;;;4.00;3.70;;;3.70;46.80;;;;;;4998332;28;20181;-70
2022/04/09 02:42:29;;;;;;;3.90;3.60;;;3.70;47.10;;;;;;4995283;28;20264;-70
2022/04/09 02:44:55;;;;;;;3.70;3.40;;;3.80;45.80;;;;;;4995212;28;20264;-72
2022/04/09 02:47:21;;;;;;;4.13;3.80;;;3.80;47.10;;;;;;4995195;28;20220;-69
2022/04/09 02:49:47;;;;;;;3.67;3.38;;;3.80;45.40;;;;;;4995314;28;20169;-71
2022/04/09 02:52:12;;;;;;;4.20;3.80;;;3.80;45.70;;;;;;4995278;28;20263;-70
2022/04/09 02:54:38;;;;;;;4.57;4.27;;;3.80;44.30;;;;;;4994201;28;20181;-69
2022/04/09 02:57:04;;;;;;;3.57;3.37;;;3.90;45.40;;;;;;4994881;28;20635;-70
2022/04/09 02:59:29;;;;;;;4.67;4.37;;;3.80;43.40;;;;;;4995252;28;20180;-70
2022/04/09 03:01:55;;;;;;;3.77;3.53;;;3.80;45.20;;;;;;4993742;28;20482;-72
2022/04/09 03:04:20;;;;;;;3.60;3.30;;;3.90;46.10;;;;;;4995230;28;20180;-69
2022/04/09 03:06:46;;;;;;;3.33;3.13;;;3.80;44.30;;;;;;4994593;28;20199;-68
2022/04/09 03:09:11;;;;;;;3.67;3.47;;;3.80;45.90;;;;;;4994929;28;20638;-69
2022/04/09 03:11:38;;;;;;;3.60;3.30;;;4.00;44.90;;;;;;4995382;28;20181;-71
2022/04/09 03:14:03;;;;;;;3.47;3.15;;;4.00;45.30;;;;;;4993518;28;20185;-70
2022/04/09 03:16:29;;;;;;;4.20;3.80;;;4.00;44.80;;;;;;4993198;28;20192;-71
2022/04/09 03:18:55;;;;;;;3.90;3.60;;;4.00;43.40;;;;;;4993598;28;20428;-68
2022/04/09 03:21:20;;;;;;;3.87;3.57;;;4.00;43.90;;;;;;4994648;28;20208;-68
2022/04/09 03:23:46;;;;;;;3.63;3.43;;;3.90;43.10;;;;;;4994667;28;20173;-69
2022/04/09 03:26:11;;;;;;;3.77;3.40;;;3.90;44.50;;;;;;4994414;28;20212;-69
2022/04/09 03:28:37;;;;;;;4.43;4.03;;;3.80;44.40;;;;;;4994474;28;20199;-69
2022/04/09 03:31:03;;;;;;;7.03;4.30;;;3.80;44.40;;;;;;4994700;28;20180;-68
2022/04/09 03:33:28;;;;;;;3.87;3.47;;;3.80;44.20;;;;;;4994559;28;20422;-69
2022/04/09 03:35:54;;;;;;;3.73;3.43;;;3.80;44.80;;;;;;4994446;28;20192;-71
2022/04/09 03:38:20;;;;;;;3.87;3.57;;;3.70;45.90;;;;;;4994216;28;20519;-70
2022/04/09 03:40:46;;;;;;;3.73;3.33;;;3.70;45.30;;;;;;4994231;28;20644;-70
2022/04/09 03:43:12;;;;;;;3.67;3.38;;;3.80;45.30;;;;;;4994427;28;20173;-72
2022/04/09 03:45:37;;;;;;;4.90;4.47;;;3.80;44.80;;;;;;4994355;28;20196;-70
2022/04/09 03:48:03;;;;;;;4.23;3.87;;;3.70;43.90;;;;;;4994021;28;20738;-69
2022/04/09 03:50:29;;;;;;;3.78;3.47;;;3.70;44.20;;;;;;4994254;28;20168;-68
2022/04/09 03:52:54;;;;;;;3.70;3.40;;;3.70;45.00;;;;;;4993594;28;20264;-68
2022/04/09 03:55:20;;;;;;;4.37;4.07;;;3.70;44.80;;;;;;4993871;28;20228;-70
2022/04/09 03:57:46;;;;;;;4.10;3.80;;;3.70;44.70;;;;;;4993820;28;20181;-68
2022/04/09 04:00:14;;;;;;;3.70;3.40;;;3.60;45.10;;;;;;4994262;28;20168;-68
2022/04/09 04:02:40;;;;;;;4.00;3.28;;;3.60;45.50;;;;;;4994236;28;20434;-69
2022/04/09 04:05:06;;;;;;;4.60;4.13;;;3.60;43.90;;;;;;4994163;28;20169;-69
2022/04/09 04:07:33;;;;;;;4.40;4.00;;;3.60;43.90;;;;;;4994342;28;20181;-69
2022/04/09 04:10:06;;;;;;;4.80;3.88;;;3.70;44.00;;;;;;4993966;28;20177;-69
2022/04/09 04:12:32;;;;;;;3.55;3.25;;;3.50;44.50;;;;;;4994267;28;20533;-69
2022/04/09 04:14:57;;;;;;;2.87;2.67;;;3.40;44.40;;;;;;4994198;28;20173;-70
2022/04/09 04:17:23;;;;;;;3.23;2.93;;;3.20;44.80;;;;;;4994001;28;20180;-70
2022/04/09 04:19:49;;;;;;;3.80;3.47;;;3.30;47.10;;;;;;4994380;28;20207;-71
2022/04/09 04:22:14;;;;;;;3.07;2.73;;;3.40;46.70;;;;;;4996844;28;20690;-70
2022/04/09 04:24:39;;;;;;;4.33;3.80;;;3.40;46.80;;;;;;4997132;28;20545;-69
2022/04/09 04:27:06;;;;;;;4.13;3.83;;;3.50;46.90;;;;;;4996447;28;20223;-70
2022/04/09 04:29:32;;;;;;;5.15;3.67;;;3.50;45.40;;;;;;4995921;28;20256;-69
2022/04/09 04:31:58;;;;;;;4.38;3.95;;;3.30;44.00;;;;;;4997510;28;20177;-69
2022/04/09 04:34:24;;;;;;;4.80;4.40;;;3.20;46.60;;;;;;4995503;28;20665;-70
2022/04/09 04:36:49;;;;;;;4.03;3.73;;;3.10;46.60;;;;;;4993294;28;20595;-70
2022/04/09 04:39:14;;;;;;;3.97;3.57;;;3.30;47.50;;;;;;4992067;28;20720;-69
2022/04/09 04:41:40;;;;;;;4.00;3.60;;;3.30;47.90;;;;;;4993563;28;20239;-70
2022/04/09 04:44:06;;;;;;;4.40;4.10;;;3.40;47.90;;;;;;4993255;28;20176;-69
2022/04/09 04:46:33;;;;;;;3.85;3.55;;;3.50;47.10;;;;;;4992958;28;20193;-69
2022/04/09 04:48:59;;;;;;;3.92;3.63;;;3.50;46.90;;;;;;4993170;28;20202;-70
2022/04/09 04:51:24;;;;;;;4.50;3.80;;;3.50;46.60;;;;;;4993603;28;20573;-69
2022/04/09 04:53:50;;;;;;;4.90;4.50;;;3.50;46.80;;;;;;4992917;28;20234;-70
2022/04/09 04:56:15;;;;;;;3.83;3.53;;;3.60;47.00;;;;;;4992902;28;20199;-71
2022/04/09 04:58:41;;;;;;;4.10;3.67;;;3.80;47.10;;;;;;4992580;28;20259;-69
2022/04/09 05:01:07;;;;;;;4.40;4.00;;;3.80;46.60;;;;;;4992844;28;20199;-70
2022/04/09 05:03:33;;;;;;;4.50;4.10;;;3.80;46.50;;;;;;4991935;28;20177;-69
2022/04/09 05:05:58;;;;;;;4.63;4.10;;;3.80;46.70;;;;;;4992839;28;20462;-70
2022/04/09 05:08:24;;;;;;;4.33;3.93;;;3.90;46.90;;;;;;4993014;28;20419;-70
2022/04/09 05:10:50;;;;;;;4.50;4.10;;;4.00;47.30;;;;;;4992727;28;20179;-69
2022/04/09 05:13:15;;;;;;;4.17;3.77;;;4.00;45.20;;;;;;4992728;28;20416;-69
2022/04/09 05:15:41;;;;;;;4.97;4.47;;;4.00;45.20;;;;;;4991404;28;20212;-69
2022/04/09 05:18:06;;;;;;;4.67;4.27;;;4.10;45.30;;;;;;4992598;28;20187;-70
2022/04/09 05:20:32;;;;;;;6.73;4.80;;;4.10;45.00;;;;;;4992540;28;20208;-69
2022/04/09 05:22:57;;;;;;;5.90;4.67;;;4.20;43.90;;;;;;4991325;28;20552;-69
2022/04/09 05:25:23;;;;;;;6.13;5.00;;;4.20;44.20;;;;;;4993239;28;20208;-69
2022/04/09 05:27:49;;;;;;;9.80;7.20;;;4.30;44.20;;;;;;4993623;28;20232;-70
2022/04/09 05:30:15;;;;;;;8.20;6.38;;;4.30;44.90;;;;;;4992783;28;20173;-70
2022/04/09 05:32:41;;;;;;;8.47;7.43;;;4.30;44.80;;;;;;4993405;28;20178;-69
2022/04/09 05:35:08;;;;;;;9.02;8.02;;;4.40;51.00;;;;;;4991996;28;20650;-71
2022/04/09 05:37:33;;;;;;;8.45;7.70;;;4.40;46.20;;;;;;4992307;28;20677;-71
2022/04/09 05:39:59;;;;;;;8.83;7.93;;;4.40;43.20;;;;;;4992635;28;20177;-70
2022/04/09 05:42:25;;;;;;;8.47;7.57;;;4.40;43.20;;;;;;4992662;28;20294;-71
2022/04/09 05:44:52;;;;;;;10.43;8.77;;;4.40;43.70;;;;;;4993732;28;20169;-71
2022/04/09 05:47:18;;;;;;;11.77;10.57;;;4.40;41.30;;;;;;4993307;28;20184;-69
2022/04/09 05:49:44;;;;;;;9.60;8.63;;;4.40;41.30;;;;;;4993637;28;20170;-70
2022/04/09 05:52:09;;;;;;;8.57;7.83;;;4.30;40.90;;;;;;4993665;28;20650;-70
2022/04/09 05:54:35;;;;;;;9.27;8.50;;;4.30;40.70;;;;;;4993818;28;20666;-69
2022/04/09 05:57:01;;;;;;;10.77;8.93;;;4.40;40.50;;;;;;4993348;28;20681;-69
2022/04/09 05:59:27;;;;;;;9.90;7.85;;;4.50;41.20;;;;;;4993483;28;20203;-69
2022/04/09 06:01:53;;;;;;;9.80;8.70;;;4.60;40.80;;;;;;4993657;28;20291;-71
2022/04/09 06:04:20;;;;;;;10.73;9.77;;;4.70;39.70;;;;;;4993611;28;20492;-69
2022/04/09 06:06:46;;;;;;;8.93;8.13;;;4.80;38.00;;;;;;4993423;28;20192;-69
2022/04/09 06:09:12;;;;;;;8.80;8.10;;;4.80;38.00;;;;;;4992240;28;20174;-69
2022/04/09 06:11:38;;;;;;;10.73;8.00;;;4.80;37.90;;;;;;4993448;28;20224;-70
2022/04/09 06:14:04;;;;;;;9.97;8.83;;;4.80;39.90;;;;;;4993548;28;20784;-70
2022/04/09 06:16:35;;;;;;;10.37;9.33;;;4.80;37.90;;;;;;4996501;28;20272;-69
2022/04/09 06:19:00;;;;;;;9.18;8.35;;;4.70;38.70;;;;;;4997858;28;20730;-70
2022/04/09 06:21:29;;;;;;;9.23;8.43;;;4.70;38.70;;;;;;4997911;28;20291;-71
2022/04/09 06:23:56;;;;;;;9.32;8.38;;;4.70;37.70;;;;;;4977613;28;20671;-71
2022/04/09 06:26:22;;;;;;;10.38;9.38;;;4.60;36.60;;;;;;4984933;28;20208;-74
2022/04/09 06:28:47;;;;;;;10.37;9.20;;;4.70;37.90;;;;;;4997570;28;20184;-70
2022/04/09 06:31:13;;;;;;;14.00;10.53;;;4.90;37.20;;;;;;4996933;28;20183;-69
2022/04/09 06:33:38;;;;;;;10.30;9.30;;;5.00;38.20;;;;;;4997173;28;20182;-70
2022/04/09 06:36:04;;;;;;;9.03;7.70;;;5.10;36.90;;;;;;4996742;28;20203;-69
2022/04/09 06:38:31;;;;;;;7.67;6.97;;;5.30;37.80;;;;;;4996382;28;20184;-69
2022/04/09 06:40:56;;;;;;;9.20;8.30;;;5.40;39.30;;;;;;4998467;28;20495;-71
2022/04/09 06:43:22;;;;;;;10.60;8.77;;;5.70;40.50;;;;;;4996348;28;20207;-70
2022/04/09 06:45:47;;;;;;;11.33;10.00;;;5.80;38.80;;;;;;4995634;28;20210;-69
2022/04/09 06:48:13;;;;;;;8.07;7.37;;;5.80;33.80;;;;;;4997451;28;20183;-71
2022/04/09 06:50:38;;;;;;;8.90;8.20;;;5.90;35.40;;;;;;4999321;28;20217;-70
2022/04/09 06:53:04;;;;;;;11.13;9.33;;;6.10;35.00;;;;;;4997976;28;20190;-70
2022/04/09 06:55:30;;;;;;;11.53;8.43;;;6.30;34.00;;;;;;4997276;28;20269;-69
2022/04/09 06:58:04;;;;;;;9.17;8.27;;;6.70;48.70;;;;;;4996379;28;20187;-69
2022/04/09 07:00:32;;;;;;;7.93;7.23;;;7.30;47.80;;;;;;4991736;28;20219;-72
2022/04/09 07:02:58;;;;;;;7.87;7.17;;;8.20;40.30;;;;;;4991939;28;20415;-70
2022/04/09 07:05:23;;;;;;;9.03;8.33;;;9.10;34.90;;;;;;4991053;28;20440;-70
2022/04/09 07:07:49;;;;;;;11.27;10.37;;;9.90;26.50;;;;;;4990634;28;20556;-71
2022/04/09 07:10:15;;;;;;;9.33;8.83;;;10.00;24.50;;;;;;4992917;28;20193;-70
2022/04/09 07:12:41;;;;;;;12.53;11.67;;;10.00;25.70;;;;;;4991325;28;20177;-69
2022/04/09 07:15:07;;;;;;;12.07;11.40;;;10.60;29.30;;;;;;4980184;28;20444;-70
2022/04/09 07:17:32;;;;;;;12.70;11.90;;;9.90;22.40;;;;;;4979329;28;20426;-70
2022/04/09 07:20:07;;;;;;;11.83;11.13;;;9.70;21.80;;;;;;4991606;28;20449;-70
2022/04/09 07:22:37;;;;;;;11.27;10.47;;;9.40;23.30;;;;;;4980084;28;20247;-70
2022/04/09 07:25:03;;;;;;;12.10;11.30;;;;;;;;;;4994307;28;20503;-72
2022/04/09 07:27:43;;;;;;;10.83;10.20;;;9.20;52.90;;;;;;4992264;28;20506;-69
2022/04/09 07:30:14;;;;;;;11.43;10.73;;;9.00;24.60;;;;;;4994589;28;20415;-70
2022/04/09 07:32:40;;;;;;;11.83;11.13;;;8.70;22.50;;;;;;4977184;28;20463;-70
2022/04/09 07:35:07;;;;;;;11.70;11.00;;;8.40;23.40;;;;;;4975304;28;20417;-70
2022/04/09 07:37:32;;;;;;;10.33;9.73;;;8.30;24.10;;;;;;4974800;28;20932;-69
2022/04/09 07:39:58;;;;;;;9.67;9.07;;;8.10;24.20;;;;;;4979765;28;20428;-70
2022/04/09 07:42:24;;;;;;;9.47;8.97;;;8.10;25.60;;;;;;4986301;28;20666;-70
2022/04/09 07:44:50;;;;;;;10.13;9.30;;;8.10;25.00;;;;;;4994003;28;20725;-71
2022/04/09 07:47:16;;;;;;;9.80;9.10;;;8.00;22.00;;;;;;4993730;28;20220;-70
2022/04/09 07:49:46;;;;;;;10.23;9.50;;;8.00;23.90;;;;;;4994852;28;20429;-69
2022/04/09 07:52:12;;;;;;;8.67;8.07;;;8.00;24.10;;;;;;4995048;28;20177;-72
2022/04/09 07:54:38;;;;;;;10.03;9.40;;;8.10;24.80;;;;;;4993569;28;20438;-70
2022/04/09 07:57:04;;;;;;;9.90;9.20;;;8.20;25.30;;;;;;4993333;28;20521;-69
2022/04/09 07:59:30;;;;;;;10.60;10.00;;;8.50;23.20;;;;;;4992406;28;20188;-70
2022/04/09 08:01:55;;;;;;;9.30;8.77;;;8.70;21.70;;;;;;4993895;28;20800;-70
2022/04/09 08:04:21;;;;;;;11.90;8.10;;;8.90;26.80;;;;;;4993063;28;20269;-72
2022/04/09 08:06:47;;;;;;;10.93;10.23;;;9.30;25.30;;;;;;4995649;28;20200;-74
2022/04/09 08:09:12;;;;;;;12.70;11.87;;;9.60;22.80;;;;;;4992971;28;20334;-70
2022/04/09 08:11:38;;;;;;;10.60;10.07;;;9.40;19.20;;;;;;4995154;28;20487;-70
2022/04/09 08:14:03;;;;;;;11.77;11.07;;;9.30;21.90;;;;;;4994016;28;20183;-71
2022/04/09 08:16:29;;;;;;;11.90;11.30;;;9.10;20.40;;;;;;4993325;28;20205;-71
2022/04/09 08:18:55;;;;;;;11.10;10.50;;;9.00;27.40;;;;;;4993330;28;20572;-71
2022/04/09 08:21:21;;;;;;;12.67;11.97;;;8.80;21.00;;;;;;4994142;28;20533;-72
2022/04/09 08:23:47;;;;;;;11.70;11.10;;;8.80;20.10;;;;;;4992624;28;20185;-71
2022/04/09 08:26:13;;;;;;;10.90;10.40;;;8.90;20.80;;;;;;4993096;28;20810;-71
2022/04/09 08:28:39;;;;;;;13.00;11.70;;;9.10;22.40;;;;;;4993067;28;20432;-71
2022/04/09 08:31:04;;;;;;;12.93;11.97;;;9.20;20.20;;;;;;4992575;28;20445;-71
2022/04/09 08:33:30;;;;;;;13.20;12.50;;;9.10;21.70;;;;;;4994450;28;20275;-72
2022/04/09 08:35:56;;;;;;;12.13;11.53;;;8.90;19.60;;;;;;4993498;28;20211;-71
2022/04/09 08:38:21;;;;;;;11.53;11.03;;;8.80;20.10;;;;;;4993126;28;20190;-71
2022/04/09 08:40:47;;;;;;;13.00;11.93;;;8.90;21.20;;;;;;4993141;28;20555;-72
2022/04/09 08:43:13;;;;;;;12.80;12.10;;;9.10;21.30;;;;;;4993036;28;20186;-72
2022/04/09 08:45:40;;;;;;;12.67;11.90;;;9.30;20.20;;;;;;4991980;28;20453;-72
2022/04/09 08:48:07;;;;;;;12.43;11.83;;;9.30;19.50;;;;;;4987968;28;20858;-71
2022/04/09 08:50:35;;;;;;;13.00;12.27;;;9.40;19.70;;;;;;4992927;28;20515;-73
2022/04/09 08:53:06;;;;;;;12.70;12.10;;;9.40;19.50;;;;;;4992676;28;20439;-72
2022/04/09 08:55:35;;;;;;;12.00;11.50;;;9.10;17.50;;;;;;4992689;28;20464;-71
2022/04/09 08:58:01;;;;;;;12.13;11.30;;;8.90;19.40;;;;;;4992215;28;20432;-72
2022/04/09 09:00:27;;;;;;;12.20;11.50;;;8.80;17.60;;;;;;4992689;28;20493;-71
2022/04/09 09:02:56;;;;;;;11.80;11.30;;;8.60;19.00;;;;;;4992802;28;20916;-72
2022/04/09 09:05:39;;;;;;;11.80;11.23;;;8.60;20.70;;;;;;4991651;28;20212;-72
2022/04/09 09:08:06;;;;;;;13.10;12.20;;;9.00;21.30;;;;;;4992297;28;20428;-72
2022/04/09 09:10:32;;;;;;;12.83;12.23;;;9.20;18.60;;;;;;4993023;28;20707;-71
2022/04/09 09:13:05;;;;;;;13.40;12.70;;;9.40;18.70;;;;;;4992292;28;20455;-71
2022/04/09 09:15:44;;;;;;;13.87;13.27;;;9.50;18.50;;;;;;4993111;28;20227;-70
2022/04/09 09:18:20;;;;;;;15.17;14.47;;;9.30;16.20;;;;;;4992351;28;20426;-76
2022/04/09 09:20:57;;;;;;;15.10;14.40;;;9.40;18.70;;;;;;4991446;28;20814;-74
2022/04/09 09:23:29;;;;;;;14.10;13.40;;;9.20;18.70;;;;;;4993981;28;20431;-73
2022/04/09 09:25:56;;;;;;;14.30;13.70;;;9.10;17.90;;;;;;4992698;28;20462;-73
2022/04/09 09:28:26;;;;;;;14.37;13.70;;;9.00;16.30;;;;;;4991742;28;20447;-71
2022/04/09 09:30:53;;;;;;;14.47;13.67;;;8.90;16.70;;;;;;4982049;28;20432;-72
2022/04/09 09:33:20;;;;;;;13.30;12.70;;;8.50;17.00;;;;;;4992192;28;20786;-72
2022/04/09 09:35:53;;;;;;;13.23;12.63;;;8.60;18.90;;;;;;4992165;28;20438;-71
2022/04/09 09:38:23;;;;;;;13.03;12.20;;;8.80;18.60;;;;;;4992554;28;20435;-71
2022/04/09 09:40:50;;;;;;;13.53;12.60;;;9.10;18.50;;;;;;4992361;28;20463;-71
2022/04/09 09:43:16;;;;;;;14.30;13.50;;;9.40;16.00;;;;;;4993547;28;20408;-72
2022/04/09 09:45:42;;;;;;;15.10;14.40;;;9.30;17.50;;;;;;4992471;28;20449;-72
2022/04/09 09:48:28;;;;;;;15.60;14.90;;;9.40;15.90;;;;;;4994584;28;20436;-72
2022/04/09 09:50:56;;;;;;;14.77;14.00;;;9.40;16.60;;;;;;4995210;28;20437;-72
2022/04/09 09:53:31;;;;;;;15.67;14.90;;;9.30;15.90;;;;;;4996825;28;20418;-72
2022/04/09 09:55:59;;;;;;;16.20;15.30;;;9.30;12.90;;;;;;4996190;28;20433;-73
2022/04/09 09:58:26;;;;;;;15.73;14.93;;;8.80;13.30;;;;;;4996129;28;20423;-72
2022/04/09 10:00:52;;;;;;;16.20;15.40;;;8.20;14.70;;;;;;4995959;28;20467;-71
2022/04/09 10:03:19;;;;;;;13.47;12.87;;;8.20;16.10;;;;;;4996370;28;20462;-71
2022/04/09 10:05:47;;;;;;;14.43;13.60;;;8.10;17.40;;;;;;4996059;28;20530;-71
2022/04/09 10:08:13;;;;;;;13.63;13.03;;;8.40;17.80;;;;;;4996028;28;20960;-71
2022/04/09 10:10:43;;;;;;;13.40;12.90;;;8.70;16.40;;;;;;4994933;28;20439;-72
2022/04/09 10:13:09;;;;;;;13.07;12.47;;;9.10;16.50;;;;;;4977085;28;20234;-72
2022/04/09 10:15:37;;;;;;;17.33;15.80;;;9.50;18.00;;;;;;4975652;28;20465;-72
2022/04/09 10:18:07;;;;;;;14.90;14.20;;;9.80;14.00;;;;;;4978869;28;20426;-71
2022/04/09 10:20:33;;;;;;;16.43;15.63;;;10.10;13.90;;;;;;4995120;28;20426;-71
2022/04/09 10:23:02;;;;;;;15.77;15.07;;;10.20;14.40;;;;;;4995559;28;20434;-71
2022/04/09 10:25:30;;;;;;;16.13;14.60;;;10.10;14.10;;;;;;4995311;28;20504;-72
2022/04/09 10:28:00;;;;;;;16.87;15.93;;;10.20;13.80;;;;;;4996774;28;20411;-72
2022/04/09 10:30:28;;;;;;;16.23;15.43;;;10.20;14.20;;;;;;4996532;28;20426;-72
2022/04/09 10:32:59;;;;;;;14.50;13.90;;;9.90;14.70;;;;;;4994658;28;20431;-73
2022/04/09 10:35:38;;;;;;;13.90;13.30;;;9.70;15.50;;;;;;4996072;28;20894;-72
2022/04/09 10:38:10;;;;;;;14.40;13.60;;;9.70;16.20;;;;;;4995546;28;20414;-72
2022/04/09 10:40:50;;;;;;;15.37;14.57;;;9.70;16.90;;;;;;4995498;28;20422;-73
2022/04/09 10:43:22;;;;;;;15.63;14.83;;;9.70;15.40;;;;;;4995251;28;20521;-73
2022/04/09 10:46:06;;;;;;;15.30;14.50;;;9.80;14.70;;;;;;4995453;28;20516;-72
2022/04/09 10:48:33;;;;;;;14.83;14.13;;;8.80;12.70;;;;;;4995146;28;20793;-72
2022/04/09 10:51:09;;;;;;;15.47;14.57;;;8.90;14.60;;;;;;4996875;28;20412;-73
2022/04/09 10:53:36;;;;;;;14.87;14.17;;;8.90;15.90;;;;;;4997148;28;20485;-73
2022/04/09 10:56:31;;;;;;;15.37;14.70;;;9.10;17.40;;;;;;4995956;28;21013;-72
2022/04/09 10:59:09;;;;;;;14.63;13.90;;;9.00;12.60;;;;;;4996237;28;20426;-73
2022/04/09 11:01:46;;;;;;;15.20;14.27;;;9.30;15.30;;;;;;4994199;28;20468;-73
2022/04/09 11:04:35;;;;;;;15.87;15.00;;;9.30;12.20;;;;;;4995278;28;20429;-70
2022/04/09 11:07:04;;;;;;;14.53;13.63;;;9.20;13.00;;;;;;4993335;28;20473;-71
2022/04/09 11:09:50;;;;;;;15.27;14.67;;;9.50;14.70;;;;;;4994958;28;20426;-70
2022/04/09 11:12:21;;;;;;;14.77;14.07;;;9.60;14.50;;;;;;4976904;28;20590;-69
2022/04/09 11:14:51;;;;;;;15.40;14.50;;;9.80;14.70;;;;;;4975166;28;20440;-71
2022/04/09 11:17:37;;;;;;;15.20;14.23;;;9.90;12.30;;;;;;4974870;28;20501;-71
2022/04/09 11:20:14;;;;;;;16.87;16.07;;;10.00;13.00;;;;;;4992335;28;20439;-71
2022/04/09 11:22:52;;;;;;;15.20;14.50;;;9.90;12.40;;;;;;4994731;28;20466;-73
2022/04/09 11:25:25;;;;;;;15.83;15.17;;;9.80;11.20;;;;;;4994854;28;20446;-71
2022/04/09 11:27:51;;;;;;;15.43;14.87;;;9.60;11.70;;;;;;4994463;28;20478;-71
2022/04/09 11:30:17;;;;;;;15.07;14.30;;;9.80;11.50;;;;;;4981567;28;20440;-71
2022/04/09 11:32:46;;;;;;;16.77;15.90;;;9.90;13.60;;;;;;4975419;28;20417;-71
2022/04/09 11:35:12;;;;;;;16.70;15.97;;;10.20;10.80;;;;;;4975895;28;20438;-70
2022/04/09 11:37:47;;;;;;;15.97;15.27;;;10.20;11.30;;;;;;4975501;28;20428;-71
2022/04/09 11:40:14;;;;;;;15.43;14.73;;;10.20;11.70;;;;;;4993803;28;20523;-71
2022/04/09 11:42:49;;;;;;;15.83;15.00;;;10.20;9.80;;;;;;4995366;28;20467;-71
2022/04/09 11:45:19;;;;;;;17.17;15.93;;;10.40;11.80;;;;;;4995218;28;20844;-70
2022/04/09 11:47:45;;;;;;;15.53;14.93;;;10.80;10.50;;;;;;4992981;28;20435;-70
2022/04/09 11:50:15;;;;;;;16.30;15.70;;;11.10;10.00;;;;;;4995592;28;20439;-69
2022/04/09 11:52:41;;;;;;;16.57;15.87;;;11.30;7.20;;;;;;4996666;28;20270;-71
2022/04/09 11:55:10;;;;;;;17.20;16.20;;;11.00;6.30;;;;;;4996883;28;20462;-69
2022/04/09 11:57:36;;;;;;;17.67;16.63;;;11.20;8.00;;;;;;4996005;28;20442;-68
2022/04/09 12:00:04;;;;;;;16.83;16.13;;;11.20;8.60;;;;;;4995487;28;20434;-69
2022/04/09 12:02:30;;;;;;;16.23;15.53;;;11.00;6.40;;;;;;4995542;28;20466;-68
2022/04/09 12:04:57;;;;;;;17.23;16.43;;;11.00;7.90;;;;;;4995550;28;20903;-70
2022/04/09 12:07:28;;;;;;;16.00;15.07;;;10.90;7.90;;;;;;4995285;28;20905;-69
2022/04/09 12:09:54;;;;;;;16.67;15.50;;;11.00;7.30;;;;;;4976312;28;20420;-69
2022/04/09 12:12:20;;;;;;;17.13;16.43;;;10.90;7.00;;;;;;4975101;28;20417;-70
2022/04/09 12:14:57;;;;;;;16.70;15.93;;;10.70;5.70;;;;;;4974987;28;20835;-71
2022/04/09 12:17:32;;;;;;;15.37;14.63;;;10.50;8.20;;;;;;4974035;28;20439;-72
2022/04/09 12:19:58;;;;;;;16.33;15.50;;;10.30;10.90;;;;;;4975335;28;20431;-72
2022/04/09 12:22:24;;;;;;;13.53;13.03;;;10.20;8.60;;;;;;4992105;28;20832;-73
2022/04/09 12:24:57;;;;;;;14.77;14.07;;;10.30;8.60;;;;;;4994468;28;20432;-74
2022/04/09 12:27:45;;;;;;;15.77;15.03;;;10.50;7.30;;;;;;4992408;28;20433;-69
2022/04/09 12:30:14;;;;;;;15.50;14.80;;;10.60;8.00;;;;;;4993871;28;20520;-69
2022/04/09 12:32:41;;;;;;;15.27;14.57;;;10.70;8.20;;;;;;4993990;28;20675;-70
2022/04/09 12:35:11;;;;;;;14.23;13.47;;;10.80;8.20;;;;;;4993555;28;20473;-69
2022/04/09 12:37:50;;;;;;;14.90;14.00;;;10.80;5.80;;;;;;4992341;28;20806;-71
2022/04/09 12:40:17;;;;;;;14.53;13.67;;;10.70;7.40;;;;;;4993570;28;20453;-70
2022/04/09 12:42:42;;;;;;;13.30;12.80;;;10.70;7.20;;;;;;4993566;28;20532;-69
2022/04/09 12:45:20;;;;;;;14.20;13.60;;;10.70;8.40;;;;;;4993121;28;20432;-68
2022/04/09 12:48:00;;;;;;;13.77;13.17;;;10.80;6.40;;;;;;4991414;28;20182;-69
2022/04/09 12:50:30;;;;;;;14.00;13.30;;;10.70;6.60;;;;;;4974763;28;20448;-70